Honolulu, HI (96801)

8:28 PM HST on February 19, 2017 (GMT -1000)
Honolulu Harbor Pier 35 | | Change Station
Active Advisory: Small Craft Advisory

Elev 0 ft 21.32 °N, 157.88 °W | Updated 10 seconds ago

Partly Cloudy
Partly Cloudy
71.6 °F
Feels Like 75 °F
N
17.0
Wind Variable Wind from NE
Gusts 26.0 mph

Today
High -- | Low -- °F
--% Chance of Precip.
Yesterday
High -- | Low -- °F
Precip. -- in
Pressure 30.19 in
Visibility 10.0 miles
Clouds Few 2900 ft
Few 3600 ft
Mostly Cloudy 15000 ft
Heat Index 75 °F
Dew Point 60 °F
Humidity 67%
Rainfall 0.00 in
Snow Depth Not available.
6:59 AM 6:31 PM
Last Quarter, 36% visible
METAR PHNL 200553Z 03012G18KT 10SM FEW029 FEW036 BKN150 22/14 A3019 RMK AO2 SLP223 SHRA DSNT W T02220139 10250 20217 53014 $
Pressure 30.19 in
Visibility 10.0 miles
Clouds Few 2900 ft
Few 3600 ft
Mostly Cloudy 15000 ft
Heat Index 75 °F
Dew Point 60 °F
Humidity 67%
Rainfall 0.00 in
Snow Depth Not available.
6:59 AM 6:31 PM
Last Quarter, 36% visible
METAR PHNL 200553Z 03012G18KT 10SM FEW029 FEW036 BKN150 22/14 A3019 RMK AO2 SLP223 SHRA DSNT W T02220139 10250 20217 53014 $

Get Your Daily Forecast Email!

Thanks for signing up!

Be on the lookout for a verification email in your inbox.

You'll start receiving the daily forecast at 8 AM.

×

10-Day Weather Forecast

Almanac

Astronomy

Feb. 19, 2017 Rise Set
Actual Time
Civil Twilight
Nautical Twilight
Astronomical Twilight
Moon
Length of Visible Light
Length of Day
Tomorrow will be .
, % of the Moon is Illuminated

Today's Extremes

State Highs State Lows

Community

WunderPhotos

Upload Photos

1,962,540 photos uploaded!

WunderBlog® & News

Nearby

Air Quality

  Air Quality AQ Index Pollutant
Not available.

Snow Depth

Station Depth Elevation

Earthquake Activity

City Distance Mag. Time & Date
Minimum magnitude displayed is 2.5.

Coastal Water Temperatures

Place Temperature

Stations

Nearby Weather Stations

Station Location Temp. Windchill Dew Point Humidity Wind Precip. Elev Updated Type
                   

Watches & Warnings

Small Craft Advisory
Issued: 3:49 PM HST Feb. 19, 2017 – National Weather Service

... Small Craft Advisory remains in effect until 6 PM HST Monday...

* winds and seas... north to northeast winds 20 to 30 kt
tonight... becoming east Monday. Seas 8 to 12 ft.

Precautionary/preparedness actions...

A Small Craft Advisory means that winds speeds of 25 to 33 knots
and/or seas 10 feet or greater are expected to produce conditions
hazardous to small craft. Inexperienced mariners... especially
those operating smaller vessels... should avoid navigating in
these conditions.